sensor_id;sensor_type;location;lat;lon;timestamp;P1;durP1;ratioP1;P2;durP2;ratioP2
25627;SDS011;40915;50.826;4.356;2022-09-24T00:01:58;13.45;;;10.43;;
25627;SDS011;40915;50.826;4.356;2022-09-24T00:04:24;14.05;;;10.48;;
25627;SDS011;40915;50.826;4.356;2022-09-24T00:06:51;12.73;;;10.43;;
25627;SDS011;40915;50.826;4.356;2022-09-24T00:09:18;11.77;;;9.18;;
25627;SDS011;40915;50.826;4.356;2022-09-24T00:11:46;12.23;;;8.90;;
25627;SDS011;40915;50.826;4.356;2022-09-24T00:14:16;12.77;;;9.30;;
25627;SDS011;40915;50.826;4.356;2022-09-24T00:16:42;10.63;;;8.85;;
25627;SDS011;40915;50.826;4.356;2022-09-24T00:19:10;12.13;;;9.18;;
25627;SDS011;40915;50.826;4.356;2022-09-24T00:21:37;12.40;;;9.52;;
25627;SDS011;40915;50.826;4.356;2022-09-24T00:24:14;11.32;;;8.93;;
25627;SDS011;40915;50.826;4.356;2022-09-24T00:27:01;10.75;;;8.63;;
25627;SDS011;40915;50.826;4.356;2022-09-24T00:29:27;10.88;;;8.50;;
25627;SDS011;40915;50.826;4.356;2022-09-24T00:31:58;10.80;;;8.77;;
25627;SDS011;40915;50.826;4.356;2022-09-24T00:34:23;11.85;;;8.85;;
25627;SDS011;40915;50.826;4.356;2022-09-24T00:36:49;13.23;;;9.80;;
25627;SDS011;40915;50.826;4.356;2022-09-24T00:39:17;11.32;;;8.77;;
25627;SDS011;40915;50.826;4.356;2022-09-24T00:41:43;10.30;;;8.70;;
25627;SDS011;40915;50.826;4.356;2022-09-24T00:47:31;13.40;;;10.23;;
25627;SDS011;40915;50.826;4.356;2022-09-24T00:50:22;13.48;;;10.07;;
25627;SDS011;40915;50.826;4.356;2022-09-24T00:53:07;13.60;;;10.60;;
25627;SDS011;40915;50.826;4.356;2022-09-24T00:55:36;14.50;;;10.77;;
25627;SDS011;40915;50.826;4.356;2022-09-24T00:58:04;14.63;;;10.80;;
25627;SDS011;40915;50.826;4.356;2022-09-24T01:00:33;16.40;;;12.70;;
25627;SDS011;40915;50.826;4.356;2022-09-24T01:03:02;19.05;;;14.00;;
25627;SDS011;40915;50.826;4.356;2022-09-24T01:05:32;21.38;;;13.98;;
25627;SDS011;40915;50.826;4.356;2022-09-24T01:07:59;19.52;;;15.02;;
25627;SDS011;40915;50.826;4.356;2022-09-24T01:10:34;18.10;;;13.82;;
25627;SDS011;40915;50.826;4.356;2022-09-24T01:16:42;21.35;;;15.20;;
25627;SDS011;40915;50.826;4.356;2022-09-24T01:21:57;17.55;;;14.57;;
25627;SDS011;40915;50.826;4.356;2022-09-24T01:24:32;21.15;;;15.27;;
25627;SDS011;40915;50.826;4.356;2022-09-24T01:27:10;19.77;;;14.85;;
25627;SDS011;40915;50.826;4.356;2022-09-24T01:30:09;19.10;;;14.52;;
25627;SDS011;40915;50.826;4.356;2022-09-24T01:32:41;19.23;;;14.85;;
25627;SDS011;40915;50.826;4.356;2022-09-24T01:35:19;20.48;;;14.85;;
25627;SDS011;40915;50.826;4.356;2022-09-24T01:37:53;20.88;;;15.57;;
25627;SDS011;40915;50.826;4.356;2022-09-24T01:40:24;21.60;;;15.73;;
25627;SDS011;40915;50.826;4.356;2022-09-24T01:42:51;18.95;;;14.85;;
25627;SDS011;40915;50.826;4.356;2022-09-24T01:45:18;19.63;;;14.60;;
25627;SDS011;40915;50.826;4.356;2022-09-24T01:47:45;19.20;;;14.45;;
25627;SDS011;40915;50.826;4.356;2022-09-24T01:50:13;19.17;;;14.98;;
25627;SDS011;40915;50.826;4.356;2022-09-24T01:52:51;19.40;;;14.73;;
25627;SDS011;40915;50.826;4.356;2022-09-24T01:55:22;21.27;;;14.85;;
25627;SDS011;40915;50.826;4.356;2022-09-24T01:57:52;18.10;;;14.32;;
25627;SDS011;40915;50.826;4.356;2022-09-24T02:00:21;16.17;;;13.63;;
25627;SDS011;40915;50.826;4.356;2022-09-24T02:02:55;17.77;;;14.20;;
25627;SDS011;40915;50.826;4.356;2022-09-24T02:08:18;22.00;;;15.25;;
25627;SDS011;40915;50.826;4.356;2022-09-24T02:11:10;18.80;;;14.88;;
25627;SDS011;40915;50.826;4.356;2022-09-24T02:13:50;20.23;;;14.95;;
25627;SDS011;40915;50.826;4.356;2022-09-24T02:16:28;18.15;;;14.77;;
25627;SDS011;40915;50.826;4.356;2022-09-24T02:18:59;18.38;;;14.20;;
25627;SDS011;40915;50.826;4.356;2022-09-24T02:21:28;19.02;;;14.60;;
25627;SDS011;40915;50.826;4.356;2022-09-24T02:24:17;19.15;;;14.63;;
25627;SDS011;40915;50.826;4.356;2022-09-24T02:26:47;18.45;;;13.82;;
25627;SDS011;40915;50.826;4.356;2022-09-24T02:29:13;19.75;;;14.13;;
25627;SDS011;40915;50.826;4.356;2022-09-24T02:31:42;16.63;;;13.43;;
25627;SDS011;40915;50.826;4.356;2022-09-24T02:34:19;17.42;;;13.20;;
25627;SDS011;40915;50.826;4.356;2022-09-24T02:36:52;21.42;;;16.60;;
25627;SDS011;40915;50.826;4.356;2022-09-24T02:39:21;16.98;;;14.15;;
25627;SDS011;40915;50.826;4.356;2022-09-24T02:41:47;17.23;;;13.10;;
25627;SDS011;40915;50.826;4.356;2022-09-24T02:44:14;17.95;;;13.30;;
25627;SDS011;40915;50.826;4.356;2022-09-24T02:46:40;18.85;;;13.60;;
25627;SDS011;40915;50.826;4.356;2022-09-24T02:49:07;19.63;;;13.75;;
25627;SDS011;40915;50.826;4.356;2022-09-24T02:51:33;18.80;;;13.68;;
25627;SDS011;40915;50.826;4.356;2022-09-24T02:53:59;19.52;;;14.85;;
25627;SDS011;40915;50.826;4.356;2022-09-24T02:56:25;20.15;;;14.52;;
25627;SDS011;40915;50.826;4.356;2022-09-24T02:58:52;20.02;;;15.13;;
25627;SDS011;40915;50.826;4.356;2022-09-24T03:01:18;20.50;;;14.98;;
25627;SDS011;40915;50.826;4.356;2022-09-24T03:03:44;19.80;;;14.77;;
25627;SDS011;40915;50.826;4.356;2022-09-24T03:06:10;20.77;;;15.18;;
25627;SDS011;40915;50.826;4.356;2022-09-24T03:08:39;19.45;;;15.43;;
25627;SDS011;40915;50.826;4.356;2022-09-24T03:11:06;22.20;;;15.48;;
25627;SDS011;40915;50.826;4.356;2022-09-24T03:13:36;19.52;;;14.88;;
25627;SDS011;40915;50.826;4.356;2022-09-24T03:16:03;21.77;;;15.35;;
25627;SDS011;40915;50.826;4.356;2022-09-24T03:18:29;23.77;;;16.58;;
25627;SDS011;40915;50.826;4.356;2022-09-24T03:21:04;20.98;;;15.18;;
25627;SDS011;40915;50.826;4.356;2022-09-24T03:23:32;20.00;;;15.60;;
25627;SDS011;40915;50.826;4.356;2022-09-24T03:25:58;21.88;;;15.23;;
25627;SDS011;40915;50.826;4.356;2022-09-24T03:28:24;19.90;;;15.38;;
25627;SDS011;40915;50.826;4.356;2022-09-24T03:30:50;23.38;;;15.48;;
25627;SDS011;40915;50.826;4.356;2022-09-24T03:33:26;21.35;;;16.30;;
25627;SDS011;40915;50.826;4.356;2022-09-24T03:36:00;22.33;;;15.80;;
25627;SDS011;40915;50.826;4.356;2022-09-24T03:38:30;20.13;;;15.27;;
25627;SDS011;40915;50.826;4.356;2022-09-24T03:40:57;21.33;;;15.60;;
25627;SDS011;40915;50.826;4.356;2022-09-24T03:43:24;19.50;;;15.60;;
25627;SDS011;40915;50.826;4.356;2022-09-24T03:45:50;21.00;;;16.02;;
25627;SDS011;40915;50.826;4.356;2022-09-24T03:48:16;31.63;;;16.48;;
25627;SDS011;40915;50.826;4.356;2022-09-24T03:50:43;22.75;;;17.05;;
25627;SDS011;40915;50.826;4.356;2022-09-24T03:53:08;21.85;;;17.05;;
25627;SDS011;40915;50.826;4.356;2022-09-24T03:55:34;25.27;;;17.05;;
25627;SDS011;40915;50.826;4.356;2022-09-24T03:58:05;22.10;;;16.55;;
25627;SDS011;40915;50.826;4.356;2022-09-24T04:00:31;22.58;;;16.20;;
25627;SDS011;40915;50.826;4.356;2022-09-24T04:02:56;24.23;;;17.33;;
25627;SDS011;40915;50.826;4.356;2022-09-24T04:05:22;25.13;;;18.23;;
25627;SDS011;40915;50.826;4.356;2022-09-24T04:07:47;24.33;;;17.95;;
25627;SDS011;40915;50.826;4.356;2022-09-24T04:10:13;25.30;;;17.90;;
25627;SDS011;40915;50.826;4.356;2022-09-24T04:12:39;26.65;;;18.00;;
25627;SDS011;40915;50.826;4.356;2022-09-24T04:15:04;24.55;;;18.40;;
25627;SDS011;40915;50.826;4.356;2022-09-24T04:17:30;24.23;;;17.50;;
25627;SDS011;40915;50.826;4.356;2022-09-24T04:19:56;24.98;;;18.33;;
25627;SDS011;40915;50.826;4.356;2022-09-24T04:22:22;24.98;;;18.65;;
25627;SDS011;40915;50.826;4.356;2022-09-24T04:24:49;27.25;;;18.50;;
25627;SDS011;40915;50.826;4.356;2022-09-24T04:27:15;25.45;;;18.35;;
25627;SDS011;40915;50.826;4.356;2022-09-24T04:29:41;26.42;;;19.38;;
25627;SDS011;40915;50.826;4.356;2022-09-24T04:32:06;24.30;;;18.45;;
25627;SDS011;40915;50.826;4.356;2022-09-24T04:34:32;26.98;;;18.70;;
25627;SDS011;40915;50.826;4.356;2022-09-24T04:36:57;29.33;;;20.25;;
25627;SDS011;40915;50.826;4.356;2022-09-24T04:39:23;26.23;;;18.48;;
25627;SDS011;40915;50.826;4.356;2022-09-24T04:41:51;24.95;;;18.70;;
25627;SDS011;40915;50.826;4.356;2022-09-24T04:44:17;29.35;;;18.77;;
25627;SDS011;40915;50.826;4.356;2022-09-24T04:46:43;23.67;;;18.92;;
25627;SDS011;40915;50.826;4.356;2022-09-24T04:49:09;25.33;;;18.23;;
25627;SDS011;40915;50.826;4.356;2022-09-24T04:51:35;24.73;;;18.33;;
25627;SDS011;40915;50.826;4.356;2022-09-24T04:54:01;24.40;;;18.70;;
25627;SDS011;40915;50.826;4.356;2022-09-24T04:56:27;25.60;;;18.67;;
25627;SDS011;40915;50.826;4.356;2022-09-24T04:58:53;26.15;;;19.33;;
25627;SDS011;40915;50.826;4.356;2022-09-24T05:01:19;26.85;;;18.63;;
25627;SDS011;40915;50.826;4.356;2022-09-24T05:03:45;24.52;;;18.95;;
25627;SDS011;40915;50.826;4.356;2022-09-24T05:06:11;24.83;;;18.73;;
25627;SDS011;40915;50.826;4.356;2022-09-24T05:08:37;25.27;;;18.33;;
25627;SDS011;40915;50.826;4.356;2022-09-24T05:11:02;24.48;;;18.73;;
25627;SDS011;40915;50.826;4.356;2022-09-24T05:13:28;26.55;;;18.67;;
25627;SDS011;40915;50.826;4.356;2022-09-24T05:15:54;24.00;;;19.05;;
25627;SDS011;40915;50.826;4.356;2022-09-24T05:18:20;24.52;;;18.15;;
25627;SDS011;40915;50.826;4.356;2022-09-24T05:20:45;26.60;;;18.75;;
25627;SDS011;40915;50.826;4.356;2022-09-24T05:23:11;28.15;;;18.98;;
25627;SDS011;40915;50.826;4.356;2022-09-24T05:25:36;25.00;;;19.00;;
25627;SDS011;40915;50.826;4.356;2022-09-24T05:28:22;25.42;;;18.63;;
25627;SDS011;40915;50.826;4.356;2022-09-24T05:30:48;25.48;;;18.77;;
25627;SDS011;40915;50.826;4.356;2022-09-24T05:33:13;24.75;;;18.90;;
25627;SDS011;40915;50.826;4.356;2022-09-24T05:35:39;27.80;;;18.23;;
25627;SDS011;40915;50.826;4.356;2022-09-24T05:38:05;24.23;;;17.73;;
25627;SDS011;40915;50.826;4.356;2022-09-24T05:40:30;29.30;;;17.83;;
25627;SDS011;40915;50.826;4.356;2022-09-24T05:43:14;25.45;;;18.58;;
25627;SDS011;40915;50.826;4.356;2022-09-24T05:45:43;25.02;;;17.73;;
25627;SDS011;40915;50.826;4.356;2022-09-24T05:48:09;26.80;;;19.13;;
25627;SDS011;40915;50.826;4.356;2022-09-24T05:50:35;25.67;;;18.38;;
25627;SDS011;40915;50.826;4.356;2022-09-24T05:53:00;25.95;;;18.10;;
25627;SDS011;40915;50.826;4.356;2022-09-24T05:55:26;28.42;;;18.42;;
25627;SDS011;40915;50.826;4.356;2022-09-24T05:57:52;26.05;;;18.48;;
25627;SDS011;40915;50.826;4.356;2022-09-24T06:00:18;28.60;;;18.88;;
25627;SDS011;40915;50.826;4.356;2022-09-24T06:02:44;24.63;;;18.52;;
25627;SDS011;40915;50.826;4.356;2022-09-24T06:05:10;26.30;;;18.45;;
25627;SDS011;40915;50.826;4.356;2022-09-24T06:07:36;25.65;;;17.98;;
25627;SDS011;40915;50.826;4.356;2022-09-24T06:10:02;24.08;;;17.60;;
25627;SDS011;40915;50.826;4.356;2022-09-24T06:12:29;24.15;;;17.75;;
25627;SDS011;40915;50.826;4.356;2022-09-24T06:14:56;25.80;;;18.10;;
25627;SDS011;40915;50.826;4.356;2022-09-24T06:17:22;26.60;;;18.35;;
25627;SDS011;40915;50.826;4.356;2022-09-24T06:19:47;28.35;;;18.20;;
25627;SDS011;40915;50.826;4.356;2022-09-24T06:22:13;24.48;;;18.02;;
25627;SDS011;40915;50.826;4.356;2022-09-24T06:24:38;24.67;;;18.60;;
25627;SDS011;40915;50.826;4.356;2022-09-24T06:27:05;25.65;;;18.27;;
25627;SDS011;40915;50.826;4.356;2022-09-24T06:29:30;26.10;;;17.58;;
25627;SDS011;40915;50.826;4.356;2022-09-24T06:31:56;26.63;;;18.55;;
25627;SDS011;40915;50.826;4.356;2022-09-24T06:34:21;21.88;;;16.27;;
25627;SDS011;40915;50.826;4.356;2022-09-24T06:36:47;24.52;;;17.98;;
25627;SDS011;40915;50.826;4.356;2022-09-24T06:39:13;22.73;;;17.20;;
25627;SDS011;40915;50.826;4.356;2022-09-24T06:41:38;26.52;;;17.92;;
25627;SDS011;40915;50.826;4.356;2022-09-24T06:44:04;23.38;;;17.25;;
25627;SDS011;40915;50.826;4.356;2022-09-24T06:46:29;23.58;;;18.23;;
25627;SDS011;40915;50.826;4.356;2022-09-24T06:48:55;28.77;;;21.77;;
25627;SDS011;40915;50.826;4.356;2022-09-24T06:51:21;24.67;;;17.02;;
25627;SDS011;40915;50.826;4.356;2022-09-24T06:53:49;26.58;;;17.73;;
25627;SDS011;40915;50.826;4.356;2022-09-24T06:56:16;23.48;;;17.33;;
25627;SDS011;40915;50.826;4.356;2022-09-24T06:58:41;24.38;;;17.50;;
25627;SDS011;40915;50.826;4.356;2022-09-24T07:01:07;21.85;;;16.80;;
25627;SDS011;40915;50.826;4.356;2022-09-24T07:03:33;25.55;;;17.98;;
25627;SDS011;40915;50.826;4.356;2022-09-24T07:06:00;25.33;;;17.75;;
25627;SDS011;40915;50.826;4.356;2022-09-24T07:08:27;25.58;;;18.00;;
25627;SDS011;40915;50.826;4.356;2022-09-24T07:10:53;25.02;;;17.55;;
25627;SDS011;40915;50.826;4.356;2022-09-24T07:13:19;24.77;;;18.33;;
25627;SDS011;40915;50.826;4.356;2022-09-24T07:15:45;24.13;;;18.10;;
25627;SDS011;40915;50.826;4.356;2022-09-24T07:18:12;25.33;;;18.70;;
25627;SDS011;40915;50.826;4.356;2022-09-24T07:20:38;27.17;;;18.58;;
25627;SDS011;40915;50.826;4.356;2022-09-24T07:23:05;25.20;;;18.08;;
25627;SDS011;40915;50.826;4.356;2022-09-24T07:25:31;28.10;;;19.08;;
25627;SDS011;40915;50.826;4.356;2022-09-24T07:28:01;30.17;;;19.15;;
25627;SDS011;40915;50.826;4.356;2022-09-24T07:30:28;26.98;;;18.58;;
25627;SDS011;40915;50.826;4.356;2022-09-24T07:32:54;28.40;;;19.63;;
25627;SDS011;40915;50.826;4.356;2022-09-24T07:35:21;27.02;;;19.55;;
25627;SDS011;40915;50.826;4.356;2022-09-24T07:37:47;23.83;;;17.75;;
25627;SDS011;40915;50.826;4.356;2022-09-24T07:40:13;24.63;;;18.25;;
25627;SDS011;40915;50.826;4.356;2022-09-24T07:42:44;25.95;;;17.77;;
25627;SDS011;40915;50.826;4.356;2022-09-24T07:45:11;24.20;;;17.48;;
25627;SDS011;40915;50.826;4.356;2022-09-24T07:47:37;25.70;;;17.63;;
25627;SDS011;40915;50.826;4.356;2022-09-24T07:50:03;24.00;;;17.08;;
25627;SDS011;40915;50.826;4.356;2022-09-24T07:52:29;23.17;;;17.08;;
25627;SDS011;40915;50.826;4.356;2022-09-24T07:54:55;24.33;;;17.00;;
25627;SDS011;40915;50.826;4.356;2022-09-24T07:57:20;23.33;;;15.02;;
25627;SDS011;40915;50.826;4.356;2022-09-24T07:59:46;19.52;;;15.43;;
25627;SDS011;40915;50.826;4.356;2022-09-24T08:02:15;20.15;;;14.90;;
25627;SDS011;40915;50.826;4.356;2022-09-24T08:04:42;21.98;;;15.57;;
25627;SDS011;40915;50.826;4.356;2022-09-24T08:07:08;19.48;;;14.35;;
25627;SDS011;40915;50.826;4.356;2022-09-24T08:09:35;20.92;;;14.85;;
25627;SDS011;40915;50.826;4.356;2022-09-24T08:12:01;20.00;;;14.25;;
25627;SDS011;40915;50.826;4.356;2022-09-24T08:14:27;20.42;;;14.85;;
25627;SDS011;40915;50.826;4.356;2022-09-24T08:16:53;20.13;;;15.25;;
25627;SDS011;40915;50.826;4.356;2022-09-24T08:19:18;18.65;;;14.32;;
25627;SDS011;40915;50.826;4.356;2022-09-24T08:21:44;20.40;;;14.90;;
25627;SDS011;40915;50.826;4.356;2022-09-24T08:24:10;20.40;;;13.85;;
25627;SDS011;40915;50.826;4.356;2022-09-24T08:26:36;16.30;;;12.93;;
25627;SDS011;40915;50.826;4.356;2022-09-24T08:29:01;18.05;;;13.85;;
25627;SDS011;40915;50.826;4.356;2022-09-24T08:31:27;20.50;;;14.35;;
25627;SDS011;40915;50.826;4.356;2022-09-24T08:33:52;17.52;;;13.60;;
25627;SDS011;40915;50.826;4.356;2022-09-24T08:36:18;18.55;;;13.27;;
25627;SDS011;40915;50.826;4.356;2022-09-24T08:38:44;16.85;;;13.73;;
25627;SDS011;40915;50.826;4.356;2022-09-24T08:49:40;20.95;;;14.38;;
25627;SDS011;40915;50.826;4.356;2022-09-24T08:52:21;18.88;;;14.60;;
25627;SDS011;40915;50.826;4.356;2022-09-24T08:55:26;20.48;;;13.88;;
25627;SDS011;40915;50.826;4.356;2022-09-24T09:09:15;19.08;;;13.73;;
25627;SDS011;40915;50.826;4.356;2022-09-24T09:11:48;18.42;;;14.00;;
25627;SDS011;40915;50.826;4.356;2022-09-24T09:14:21;20.02;;;14.55;;
25627;SDS011;40915;50.826;4.356;2022-09-24T09:16:58;21.25;;;15.32;;
25627;SDS011;40915;50.826;4.356;2022-09-24T09:19:52;20.30;;;15.75;;
25627;SDS011;40915;50.826;4.356;2022-09-24T09:22:22;23.02;;;17.35;;
25627;SDS011;40915;50.826;4.356;2022-09-24T09:24:52;25.27;;;17.65;;
25627;SDS011;40915;50.826;4.356;2022-09-24T09:27:21;22.48;;;14.88;;
25627;SDS011;40915;50.826;4.356;2022-09-24T09:29:47;21.48;;;14.45;;
25627;SDS011;40915;50.826;4.356;2022-09-24T09:34:53;22.17;;;14.57;;
25627;SDS011;40915;50.826;4.356;2022-09-24T09:37:26;19.02;;;13.38;;
25627;SDS011;40915;50.826;4.356;2022-09-24T09:43:15;21.42;;;14.82;;
25627;SDS011;40915;50.826;4.356;2022-09-24T09:51:37;20.92;;;14.88;;
25627;SDS011;40915;50.826;4.356;2022-09-24T09:54:05;18.80;;;13.88;;
25627;SDS011;40915;50.826;4.356;2022-09-24T09:56:34;19.05;;;15.27;;
25627;SDS011;40915;50.826;4.356;2022-09-24T09:59:07;19.38;;;14.30;;
25627;SDS011;40915;50.826;4.356;2022-09-24T10:01:45;22.08;;;16.38;;
25627;SDS011;40915;50.826;4.356;2022-09-24T10:04:27;23.15;;;16.70;;
25627;SDS011;40915;50.826;4.356;2022-09-24T10:07:03;19.65;;;15.48;;
25627;SDS011;40915;50.826;4.356;2022-09-24T10:09:33;21.00;;;13.45;;
25627;SDS011;40915;50.826;4.356;2022-09-24T10:12:06;18.60;;;13.45;;
25627;SDS011;40915;50.826;4.356;2022-09-24T10:14:33;20.65;;;14.98;;
25627;SDS011;40915;50.826;4.356;2022-09-24T10:16:59;21.02;;;13.65;;
25627;SDS011;40915;50.826;4.356;2022-09-24T10:19:29;22.08;;;14.23;;
25627;SDS011;40915;50.826;4.356;2022-09-24T10:22:05;17.13;;;13.68;;
25627;SDS011;40915;50.826;4.356;2022-09-24T10:24:33;19.27;;;14.25;;
25627;SDS011;40915;50.826;4.356;2022-09-24T10:27:08;19.88;;;14.98;;
25627;SDS011;40915;50.826;4.356;2022-09-24T10:29:38;17.50;;;12.60;;
25627;SDS011;40915;50.826;4.356;2022-09-24T10:32:24;16.42;;;12.32;;
25627;SDS011;40915;50.826;4.356;2022-09-24T10:35:25;16.60;;;12.32;;
25627;SDS011;40915;50.826;4.356;2022-09-24T10:37:54;20.65;;;16.00;;
25627;SDS011;40915;50.826;4.356;2022-09-24T10:40:22;18.23;;;12.75;;
25627;SDS011;40915;50.826;4.356;2022-09-24T10:42:55;16.75;;;12.55;;
25627;SDS011;40915;50.826;4.356;2022-09-24T10:45:24;17.50;;;12.88;;
25627;SDS011;40915;50.826;4.356;2022-09-24T10:48:05;16.92;;;12.30;;
25627;SDS011;40915;50.826;4.356;2022-09-24T11:09:48;16.05;;;11.05;;
25627;SDS011;40915;50.826;4.356;2022-09-24T11:18:33;13.75;;;9.77;;
25627;SDS011;40915;50.826;4.356;2022-09-24T11:21:27;13.55;;;9.57;;
25627;SDS011;40915;50.826;4.356;2022-09-24T11:24:17;16.10;;;11.75;;
25627;SDS011;40915;50.826;4.356;2022-09-24T11:27:02;14.02;;;10.25;;
25627;SDS011;40915;50.826;4.356;2022-09-24T11:29:57;17.15;;;10.85;;
25627;SDS011;40915;50.826;4.356;2022-09-24T11:38:50;15.38;;;11.80;;
25627;SDS011;40915;50.826;4.356;2022-09-24T11:53:31;20.58;;;14.80;;
25627;SDS011;40915;50.826;4.356;2022-09-24T12:02:09;17.80;;;12.65;;
25627;SDS011;40915;50.826;4.356;2022-09-24T12:04:49;16.23;;;12.43;;
25627;SDS011;40915;50.826;4.356;2022-09-24T12:10:29;20.55;;;14.57;;
25627;SDS011;40915;50.826;4.356;2022-09-24T12:13:18;20.75;;;15.07;;
25627;SDS011;40915;50.826;4.356;2022-09-24T12:18:32;22.77;;;16.67;;
25627;SDS011;40915;50.826;4.356;2022-09-24T12:21:06;19.88;;;15.80;;
25627;SDS011;40915;50.826;4.356;2022-09-24T12:23:36;21.95;;;15.32;;
25627;SDS011;40915;50.826;4.356;2022-09-24T12:26:04;19.88;;;14.73;;
25627;SDS011;40915;50.826;4.356;2022-09-24T12:28:34;21.23;;;15.38;;
25627;SDS011;40915;50.826;4.356;2022-09-24T12:31:41;17.50;;;14.20;;
25627;SDS011;40915;50.826;4.356;2022-09-24T12:34:48;45.33;;;26.27;;
25627;SDS011;40915;50.826;4.356;2022-09-24T12:37:23;24.25;;;15.32;;
25627;SDS011;40915;50.826;4.356;2022-09-24T12:40:41;17.38;;;13.00;;
25627;SDS011;40915;50.826;4.356;2022-09-24T12:42:53;15.27;;;11.05;;
25627;SDS011;40915;50.826;4.356;2022-09-24T12:45:22;16.02;;;11.52;;
25627;SDS011;40915;50.826;4.356;2022-09-24T12:47:54;13.32;;;10.57;;
25627;SDS011;40915;50.826;4.356;2022-09-24T12:50:27;16.38;;;12.20;;
25627;SDS011;40915;50.826;4.356;2022-09-24T12:52:57;13.15;;;10.30;;
25627;SDS011;40915;50.826;4.356;2022-09-24T12:55:30;14.95;;;10.93;;
25627;SDS011;40915;50.826;4.356;2022-09-24T12:57:59;14.23;;;10.98;;
25627;SDS011;40915;50.826;4.356;2022-09-24T13:00:32;13.32;;;10.95;;
25627;SDS011;40915;50.826;4.356;2022-09-24T13:02:59;12.95;;;9.75;;
25627;SDS011;40915;50.826;4.356;2022-09-24T13:05:27;13.07;;;9.70;;
25627;SDS011;40915;50.826;4.356;2022-09-24T13:10:52;17.40;;;10.50;;
25627;SDS011;40915;50.826;4.356;2022-09-24T13:13:24;12.18;;;10.43;;
25627;SDS011;40915;50.826;4.356;2022-09-24T13:18:53;14.75;;;10.85;;
25627;SDS011;40915;50.826;4.356;2022-09-24T13:21:28;14.25;;;11.05;;
25627;SDS011;40915;50.826;4.356;2022-09-24T13:23:55;17.27;;;12.15;;
25627;SDS011;40915;50.826;4.356;2022-09-24T13:26:33;17.23;;;12.57;;
25627;SDS011;40915;50.826;4.356;2022-09-24T13:29:19;16.02;;;11.27;;
25627;SDS011;40915;50.826;4.356;2022-09-24T13:31:52;14.48;;;11.30;;
25627;SDS011;40915;50.826;4.356;2022-09-24T13:34:25;15.40;;;12.63;;
25627;SDS011;40915;50.826;4.356;2022-09-24T13:39:47;14.98;;;12.02;;
25627;SDS011;40915;50.826;4.356;2022-09-24T13:42:30;14.98;;;12.07;;
25627;SDS011;40915;50.826;4.356;2022-09-24T13:45:02;15.07;;;12.75;;
25627;SDS011;40915;50.826;4.356;2022-09-24T13:47:35;16.70;;;12.75;;
25627;SDS011;40915;50.826;4.356;2022-09-24T13:53:06;16.40;;;14.10;;
25627;SDS011;40915;50.826;4.356;2022-09-24T13:55:49;16.63;;;13.52;;
25627;SDS011;40915;50.826;4.356;2022-09-24T13:58:36;17.08;;;14.82;;
25627;SDS011;40915;50.826;4.356;2022-09-24T14:01:45;18.92;;;15.45;;
25627;SDS011;40915;50.826;4.356;2022-09-24T14:04:00;19.45;;;16.77;;
25627;SDS011;40915;50.826;4.356;2022-09-24T14:06:36;19.00;;;17.00;;
25627;SDS011;40915;50.826;4.356;2022-09-24T14:09:24;19.30;;;16.42;;
25627;SDS011;40915;50.826;4.356;2022-09-24T14:11:58;21.98;;;16.95;;
25627;SDS011;40915;50.826;4.356;2022-09-24T14:14:27;19.58;;;16.40;;
25627;SDS011;40915;50.826;4.356;2022-09-24T14:17:04;18.60;;;15.45;;
25627;SDS011;40915;50.826;4.356;2022-09-24T14:19:30;17.80;;;16.00;;
25627;SDS011;40915;50.826;4.356;2022-09-24T14:21:58;19.27;;;17.23;;
25627;SDS011;40915;50.826;4.356;2022-09-24T14:24:28;19.33;;;16.45;;
25627;SDS011;40915;50.826;4.356;2022-09-24T14:27:08;18.55;;;16.65;;
25627;SDS011;40915;50.826;4.356;2022-09-24T14:29:47;17.92;;;15.50;;
25627;SDS011;40915;50.826;4.356;2022-09-24T14:32:22;18.23;;;16.27;;
25627;SDS011;40915;50.826;4.356;2022-09-24T14:34:57;16.88;;;15.13;;
25627;SDS011;40915;50.826;4.356;2022-09-24T14:40:11;18.23;;;14.43;;
25627;SDS011;40915;50.826;4.356;2022-09-24T14:42:41;14.60;;;13.20;;
25627;SDS011;40915;50.826;4.356;2022-09-24T14:45:16;14.00;;;12.60;;
25627;SDS011;40915;50.826;4.356;2022-09-24T14:47:44;15.38;;;13.15;;
25627;SDS011;40915;50.826;4.356;2022-09-24T14:52:54;13.15;;;11.82;;
25627;SDS011;40915;50.826;4.356;2022-09-24T14:55:21;12.20;;;11.00;;
25627;SDS011;40915;50.826;4.356;2022-09-24T14:57:59;11.95;;;10.00;;
25627;SDS011;40915;50.826;4.356;2022-09-24T15:00:35;9.30;;;8.40;;
25627;SDS011;40915;50.826;4.356;2022-09-24T15:03:14;9.13;;;8.20;;
25627;SDS011;40915;50.826;4.356;2022-09-24T15:05:45;8.43;;;7.47;;
25627;SDS011;40915;50.826;4.356;2022-09-24T15:13:22;8.95;;;8.10;;
25627;SDS011;40915;50.826;4.356;2022-09-24T15:15:59;11.43;;;9.43;;
25627;SDS011;40915;50.826;4.356;2022-09-24T15:18:41;12.20;;;9.75;;
25627;SDS011;40915;50.826;4.356;2022-09-24T15:21:08;14.25;;;10.98;;
25627;SDS011;40915;50.826;4.356;2022-09-24T15:23:36;11.68;;;10.25;;
25627;SDS011;40915;50.826;4.356;2022-09-24T15:26:02;12.43;;;9.80;;
25627;SDS011;40915;50.826;4.356;2022-09-24T15:28:28;11.07;;;9.90;;
25627;SDS011;40915;50.826;4.356;2022-09-24T15:30:55;13.65;;;9.90;;
25627;SDS011;40915;50.826;4.356;2022-09-24T15:33:21;9.98;;;8.70;;
25627;SDS011;40915;50.826;4.356;2022-09-24T15:35:46;10.98;;;9.88;;
25627;SDS011;40915;50.826;4.356;2022-09-24T15:38:13;11.70;;;9.95;;
25627;SDS011;40915;50.826;4.356;2022-09-24T15:40:41;11.07;;;9.55;;
25627;SDS011;40915;50.826;4.356;2022-09-24T15:43:20;11.38;;;10.02;;
25627;SDS011;40915;50.826;4.356;2022-09-24T15:45:47;12.90;;;10.07;;
25627;SDS011;40915;50.826;4.356;2022-09-24T15:48:13;11.88;;;10.38;;
25627;SDS011;40915;50.826;4.356;2022-09-24T15:50:40;14.30;;;11.02;;
25627;SDS011;40915;50.826;4.356;2022-09-24T15:53:11;12.30;;;10.23;;
25627;SDS011;40915;50.826;4.356;2022-09-24T15:55:42;14.73;;;11.93;;
25627;SDS011;40915;50.826;4.356;2022-09-24T15:58:12;15.65;;;13.25;;
25627;SDS011;40915;50.826;4.356;2022-09-24T16:00:38;14.48;;;12.65;;
25627;SDS011;40915;50.826;4.356;2022-09-24T16:03:04;17.10;;;12.93;;
25627;SDS011;40915;50.826;4.356;2022-09-24T16:05:30;16.58;;;12.68;;
25627;SDS011;40915;50.826;4.356;2022-09-24T16:07:56;18.77;;;14.05;;
25627;SDS011;40915;50.826;4.356;2022-09-24T16:10:21;18.58;;;15.55;;
25627;SDS011;40915;50.826;4.356;2022-09-24T16:12:47;20.60;;;16.90;;
25627;SDS011;40915;50.826;4.356;2022-09-24T16:15:15;18.35;;;15.07;;
25627;SDS011;40915;50.826;4.356;2022-09-24T16:17:41;18.90;;;15.85;;
25627;SDS011;40915;50.826;4.356;2022-09-24T16:20:07;19.75;;;15.48;;
25627;SDS011;40915;50.826;4.356;2022-09-24T16:22:34;18.52;;;14.60;;
25627;SDS011;40915;50.826;4.356;2022-09-24T16:24:59;17.70;;;14.48;;
25627;SDS011;40915;50.826;4.356;2022-09-24T16:27:25;18.23;;;14.20;;
25627;SDS011;40915;50.826;4.356;2022-09-24T16:29:51;17.23;;;14.10;;
25627;SDS011;40915;50.826;4.356;2022-09-24T16:32:16;18.38;;;13.40;;
25627;SDS011;40915;50.826;4.356;2022-09-24T16:34:42;20.40;;;14.82;;
25627;SDS011;40915;50.826;4.356;2022-09-24T16:37:07;22.30;;;16.88;;
25627;SDS011;40915;50.826;4.356;2022-09-24T16:39:33;19.05;;;15.45;;
25627;SDS011;40915;50.826;4.356;2022-09-24T16:41:59;18.98;;;14.55;;
25627;SDS011;40915;50.826;4.356;2022-09-24T16:44:25;17.27;;;13.10;;